Time;durP1;ratioP1;P1;durP2;ratioP2;P2;SDS_P1;SDS_P2;PMS_P1;PMS_P2;Temp;Humidity;BMP_temperature;BMP_pressure;BME280_temperature;BME280_humidity;BME280_pressure;Samples;Min_cycle;Max_cycle;Signal;HPM_P1;HPM_P2
2022/04/21 00:02:16;;;;;;;;;;;12.70;48.20;;;;;;8421928;27;20565;-76
2022/04/21 00:06:18;;;;;;;;;;;12.60;49.00;;;;;;8388863;28;20352;-76
2022/04/21 00:10:20;;;;;;;;;;;12.50;47.50;;;;;;8373225;28;19920;-76
2022/04/21 00:14:22;;;;;;;;;;;12.40;48.60;;;;;;8399999;28;19926;-76
2022/04/21 00:18:23;;;;;;;;;;;12.40;46.50;;;;;;8385147;28;20655;-76
2022/04/21 00:26:46;;;;;;;;;;;12.20;50.10;;;;;;8390494;28;19920;-75
2022/04/21 00:30:47;;;;;;;;;;;12.30;49.50;;;;;;8400909;28;19920;-76
2022/04/21 00:34:49;;;;;;;;;;;12.20;49.00;;;;;;8391615;28;19931;-76
2022/04/21 00:38:51;;;;;;;;;;;12.20;47.10;;;;;;8393144;28;19936;-76
2022/04/21 00:42:53;;;;;;;;;;;12.20;46.50;;;;;;8401462;28;19942;-76
2022/04/21 00:47:03;;;;;;;;;;;12.20;45.90;;;;;;8386085;28;19927;-76
2022/04/21 00:51:05;;;;;;;;;;;12.20;45.40;;;;;;8390669;28;20382;-76
2022/04/21 00:55:07;;;;;;;;;;;12.20;45.70;;;;;;8396442;28;19920;-76
2022/04/21 00:59:09;;;;;;;;;;;12.10;45.50;;;;;;8391325;28;19943;-76
2022/04/21 01:03:14;;;;;;;;;;;11.90;45.30;;;;;;8391596;28;19924;-76
2022/04/21 01:07:16;;;;;;;;;;;11.90;45.50;;;;;;8389355;28;19964;-76
2022/04/21 01:11:18;;;;;;;;;;;11.80;45.90;;;;;;8394626;28;19921;-76
2022/04/21 01:15:20;;;;;;;;;;;11.80;46.10;;;;;;8401454;28;20231;-76
2022/04/21 01:19:21;;;;;;;;;;;11.80;44.50;;;;;;8397051;28;19927;-76
2022/04/21 01:23:23;;;;;;;;;;;11.80;44.80;;;;;;8410025;28;19927;-76
2022/04/21 01:27:27;;;;;;;;;;;11.80;44.90;;;;;;8399401;28;19927;-76
2022/04/21 01:31:29;;;;;;;;;;;11.80;44.50;;;;;;8390604;28;19924;-76
2022/04/21 01:35:31;;;;;;;;;;;11.80;43.90;;;;;;8402461;28;19920;-75
2022/04/21 01:43:53;;;;;;;;;;;11.70;43.90;;;;;;8388985;28;19920;-76
2022/04/21 01:47:56;;;;;;;;;;;11.60;44.10;;;;;;8389282;28;20328;-76
2022/04/21 01:51:58;;;;;;;;;;;11.60;44.00;;;;;;8405360;28;20307;-76
2022/04/21 01:55:59;;;;;;;;;;;11.50;44.50;;;;;;8403709;28;20359;-75
2022/04/21 02:00:01;;;;;;;;;;;11.40;44.30;;;;;;8402962;28;20343;-76
2022/04/21 02:04:03;;;;;;;;;;;11.40;44.50;;;;;;8425322;27;19921;-76
2022/04/21 02:08:05;;;;;;;;;;;11.30;43.90;;;;;;8383966;28;20007;-76
2022/04/21 02:12:07;;;;;;;;;;;11.30;45.70;;;;;;8416030;27;19920;-76
2022/04/21 02:16:09;;;;;;;;;;;11.20;44.90;;;;;;8391176;28;20004;-75
2022/04/21 02:20:14;;;;;;;;;;;11.10;45.10;;;;;;8393792;28;20057;-75
2022/04/21 02:24:16;;;;;;;;;;;11.10;44.50;;;;;;8375428;28;19920;-76
2022/04/21 02:28:17;;;;;;;;;;;11.00;44.50;;;;;;8394843;28;19920;-75
2022/04/21 02:32:19;;;;;;;;;;;11.00;45.20;;;;;;8391745;28;19928;-76
2022/04/21 02:36:20;;;;;;;;;;;10.90;44.50;;;;;;8391258;28;19968;-76
2022/04/21 02:40:22;;;;;;;;;;;10.90;44.80;;;;;;8397298;28;19927;-75
2022/04/21 02:44:24;;;;;;;;;;;10.80;44.50;;;;;;8413035;28;19927;-75
2022/04/21 02:48:25;;;;;;;;;;;10.80;45.10;;;;;;8396182;28;19920;-76
2022/04/21 02:52:28;;;;;;;;;;;10.70;45.70;;;;;;8390990;28;19924;-76
2022/04/21 03:01:14;;;;;;;;;;;10.60;45.90;;;;;;8399464;28;19990;-76
2022/04/21 03:05:16;;;;;;;;;;;10.50;46.50;;;;;;8402596;28;19928;-76
2022/04/21 03:09:18;;;;;;;;;;;10.40;46.10;;;;;;8391637;28;19921;-75
2022/04/21 03:13:20;;;;;;;;;;;10.30;45.90;;;;;;8389546;28;19920;-75
2022/04/21 03:17:21;;;;;;;;;;;10.20;46.40;;;;;;8396967;28;19931;-76
2022/04/21 03:25:44;;;;;;;;;;;9.80;47.20;;;;;;8399907;28;19920;-75
2022/04/21 03:29:46;;;;;;;;;;;9.70;47.50;;;;;;8400547;28;19981;-75
2022/04/21 03:33:50;;;;;;;;;;;9.70;47.40;;;;;;8398199;28;19927;-75
2022/04/21 03:37:52;;;;;;;;;;;9.70;47.50;;;;;;8397852;28;19928;-75
2022/04/21 03:41:53;;;;;;;;;;;9.70;47.90;;;;;;8401662;28;19962;-75
2022/04/21 03:45:55;;;;;;;;;;;9.70;47.80;;;;;;8397474;28;19924;-75
2022/04/21 03:49:57;;;;;;;;;;;9.80;47.50;;;;;;8392022;28;19942;-76
2022/04/21 03:53:58;;;;;;;;;;;9.80;48.20;;;;;;8396877;28;19977;-75
2022/04/21 03:58:00;;;;;;;;;;;9.80;48.20;;;;;;8384724;28;19920;-75
2022/04/21 04:02:02;;;;;;;;;;;9.70;48.50;;;;;;8382847;28;19924;-75
2022/04/21 04:10:51;;;;;;;;;;;9.60;48.30;;;;;;8390619;28;19997;-75
2022/04/21 04:14:47;;;;;;;;;;;9.50;48.10;;;;;;8391558;28;19996;-75
2022/04/21 04:18:49;;;;;;;;;;;9.50;48.80;;;;;;8397060;28;20383;-75
2022/04/21 04:22:50;;;;;;;;;;;9.40;48.60;;;;;;8390800;28;19924;-75
2022/04/21 04:26:52;;;;;;;;;;;9.40;49.20;;;;;;8399216;28;19931;-75
2022/04/21 04:30:54;;;;;;;;;;;9.30;49.60;;;;;;8400012;28;19921;-75
2022/04/21 04:34:55;;;;;;;;;;;9.20;48.50;;;;;;8404178;28;19924;-75
2022/04/21 04:44:01;;;;;;;;;;;8.90;50.70;;;;;;8402995;28;19966;-75
2022/04/21 04:48:03;;;;;;;;;;;9.00;57.00;;;;;;8396246;28;19968;-75
2022/04/21 04:52:05;;;;;;;;;;;9.00;54.10;;;;;;8411347;28;19919;-75
2022/04/21 04:56:07;;;;;;;;;;;9.00;56.50;;;;;;8393850;28;19919;-75
2022/04/21 05:00:09;;;;;;;;;;;9.10;56.30;;;;;;8396658;28;19986;-75
2022/04/21 05:04:10;;;;;;;;;;;9.20;57.00;;;;;;8402509;28;19927;-75
2022/04/21 05:08:12;;;;;;;;;;;9.30;57.10;;;;;;8405115;28;19924;-75
2022/04/21 05:12:14;;;;;;;;;;;9.40;55.50;;;;;;8391415;28;19957;-76
2022/04/21 05:16:16;;;;;;;;;;;9.50;55.30;;;;;;8396837;28;19920;-77
2022/04/21 05:20:18;;;;;;;;;;;9.60;55.30;;;;;;8397687;28;19990;-77
2022/04/21 05:24:20;;;;;;;;;;;9.60;55.50;;;;;;8403792;28;19920;-77
2022/04/21 05:28:21;;;;;;;;;;;9.70;58.50;;;;;;8379593;28;20340;-77
2022/04/21 05:32:25;;;;;;;;;;;9.70;57.00;;;;;;8385187;28;19935;-77
2022/04/21 05:36:27;;;;;;;;;;;9.80;59.60;;;;;;8401685;28;19921;-78
2022/04/21 05:40:29;;;;;;;;;;;9.90;61.30;;;;;;8390102;28;19932;-77
2022/04/21 05:44:31;;;;;;;;;;;10.00;61.40;;;;;;8390740;28;19967;-78
2022/04/21 05:48:34;;;;;;;;;;;10.20;62.50;;;;;;8388671;28;19921;-77
2022/04/21 05:52:37;;;;;;;;;;;10.30;62.90;;;;;;8397132;28;20357;-77
2022/04/21 05:56:39;;;;;;;;;;;10.40;63.90;;;;;;8388923;28;20114;-77
2022/04/21 06:00:40;;;;;;;;;;;10.50;64.00;;;;;;8402053;28;19920;-77
2022/04/21 06:04:42;;;;;;;;;;;10.60;63.60;;;;;;8398798;28;19924;-77
2022/04/21 06:08:44;;;;;;;;;;;10.60;63.00;;;;;;8376950;28;19928;-77
2022/04/21 06:12:45;;;;;;;;;;;10.70;62.90;;;;;;8371005;28;19924;-78
2022/04/21 06:16:47;;;;;;;;;;;10.80;62.60;;;;;;8371750;28;19921;-77
2022/04/21 06:20:49;;;;;;;;;;;10.90;62.40;;;;;;8365580;28;19955;-77
2022/04/21 06:24:51;;;;;;;;;;;11.10;61.90;;;;;;8367961;28;19928;-78
2022/04/21 06:28:59;;;;;;;;;;;11.20;62.80;;;;;;8364349;28;19928;-77
2022/04/21 06:33:01;;;;;;;;;;;11.30;64.30;;;;;;8375367;28;19928;-77
2022/04/21 06:37:03;;;;;;;;;;;11.40;62.30;;;;;;8366098;28;19921;-77
2022/04/21 06:41:04;;;;;;;;;;;11.60;67.70;;;;;;8361935;28;19920;-77
2022/04/21 06:49:27;;;;;;;;;;;11.90;63.90;;;;;;8371203;28;19928;-78
2022/04/21 06:53:30;;;;;;;;;;;12.00;63.20;;;;;;8364519;28;19943;-77
2022/04/21 06:57:31;;;;;;;;;;;12.10;64.30;;;;;;8371479;28;19935;-77
2022/04/21 07:01:33;;;;;;;;;;;12.30;60.90;;;;;;8366672;28;20240;-77
2022/04/21 07:05:35;;;;;;;;;;;12.40;61.80;;;;;;8376512;28;20664;-77
2022/04/21 07:09:37;;;;;;;;;;;12.60;65.10;;;;;;8370256;28;20284;-77
2022/04/21 07:18:48;;;;;;;;;;;12.80;64.10;;;;;;8338379;28;20013;-77
2022/04/21 07:22:50;;;;;;;;;;;12.90;65.90;;;;;;8363258;28;19924;-77
2022/04/21 07:26:53;;;;;;;;;;;13.00;65.70;;;;;;8369018;28;20358;-77
2022/04/21 07:30:54;;;;;;;;;;;13.10;65.80;;;;;;8366803;28;19924;-77
2022/04/21 07:34:56;;;;;;;;;;;13.20;67.30;;;;;;8379140;28;20198;-77
2022/04/21 07:38:58;;;;;;;;;;;13.30;67.00;;;;;;8364198;28;20408;-77
2022/04/21 07:43:03;;;;;;;;;;;13.40;67.30;;;;;;8365130;28;19925;-77
2022/04/21 07:47:06;;;;;;;;;;;13.50;67.30;;;;;;8369618;28;19920;-77
2022/04/21 07:51:07;;;;;;;;;;;13.60;67.70;;;;;;8370944;28;19928;-77
2022/04/21 07:55:10;;;;;;;;;;;13.70;68.50;;;;;;8371034;28;19920;-77
2022/04/21 07:59:11;;;;;;;;;;;13.80;65.50;;;;;;8371901;28;19927;-77
2022/04/21 08:03:18;;;;;;;;;;;14.00;67.20;;;;;;8366300;28;19929;-78
2022/04/21 08:07:19;;;;;;;;;;;14.20;67.70;;;;;;8398150;28;19921;-77
2022/04/21 08:11:21;;;;;;;;;;;14.30;68.70;;;;;;8366014;28;19956;-77
2022/04/21 08:15:24;;;;;;;;;;;14.40;67.00;;;;;;8366021;28;19931;-77
2022/04/21 08:19:26;;;;;;;;;;;14.60;66.30;;;;;;8362785;28;19925;-77
2022/04/21 08:23:27;;;;;;;;;;;14.80;67.50;;;;;;8365983;28;19931;-77
2022/04/21 08:36:19;;;;;;;;;;;15.20;67.30;;;;;;8364809;28;20423;-77
2022/04/21 08:40:22;;;;;;;;;;;15.30;65.60;;;;;;8362283;28;19924;-77
2022/04/21 08:44:25;;;;;;;;;;;15.40;66.50;;;;;;8365383;28;19960;-77
2022/04/21 08:48:27;;;;;;;;;;;15.50;66.60;;;;;;8357315;28;19928;-77
2022/04/21 08:52:29;;;;;;;;;;;15.60;67.00;;;;;;8366173;28;19934;-77
2022/04/21 08:56:30;;;;;;;;;;;15.70;64.60;;;;;;8375243;28;20291;-77
2022/04/21 09:00:32;;;;;;;;;;;15.80;64.20;;;;;;8370414;28;19943;-78
2022/04/21 09:04:34;;;;;;;;;;;15.90;62.30;;;;;;8369568;28;19964;-77
2022/04/21 09:08:35;;;;;;;;;;;15.90;60.70;;;;;;8375930;28;19932;-77
2022/04/21 09:12:55;;;;;;;;;;;16.00;59.80;;;;;;8367864;28;20384;-78
2022/04/21 09:17:04;;;;;;;;;;;16.10;60.50;;;;;;8366009;28;19920;-77
2022/04/21 09:21:29;;;;;;;;;;;16.10;58.30;;;;;;8364990;28;20007;-77
2022/04/21 09:25:31;;;;;;;;;;;16.30;59.20;;;;;;8358098;28;19925;-78
2022/04/21 09:29:37;;;;;;;;;;;16.50;59.30;;;;;;8368531;28;19920;-77
2022/04/21 09:33:44;;;;;;;;;;;16.60;58.30;;;;;;8365965;28;19921;-77
2022/04/21 09:37:48;;;;;;;;;;;16.80;58.50;;;;;;8368381;28;19920;-77
2022/04/21 09:41:53;;;;;;;;;;;16.90;57.30;;;;;;8363822;28;19924;-77
2022/04/21 09:46:13;;;;;;;;;;;17.00;57.90;;;;;;8373723;28;20011;-77
2022/04/21 09:50:15;;;;;;;;;;;17.10;57.60;;;;;;8370430;28;19976;-78
2022/04/21 09:54:27;;;;;;;;;;;17.20;56.70;;;;;;8371771;28;20459;-78
2022/04/21 09:58:35;;;;;;;;;;;17.30;56.90;;;;;;8367189;28;19920;-77
2022/04/21 10:02:38;;;;;;;;;;;17.30;55.70;;;;;;8371404;28;19924;-78
2022/04/21 10:06:40;;;;;;;;;;;17.40;56.10;;;;;;8362502;28;19924;-77
2022/04/21 10:10:42;;;;;;;;;;;17.60;56.60;;;;;;8377723;28;19928;-78
2022/04/21 10:14:45;;;;;;;;;;;17.80;56.70;;;;;;8382066;28;19967;-77
2022/04/21 10:18:50;;;;;;;;;;;18.00;56.80;;;;;;8405409;27;19927;-77
2022/04/21 10:22:53;;;;;;;;;;;18.10;53.60;;;;;;8374606;28;19920;-76
2022/04/21 10:26:56;;;;;;;;;;;18.30;52.80;;;;;;8380994;28;19935;-78
2022/04/21 10:30:57;;;;;;;;;;;18.50;55.40;;;;;;8377698;28;19956;-78
2022/04/21 10:34:59;;;;;;;;;;;18.90;55.20;;;;;;8404114;27;19925;-79
2022/04/21 10:39:27;;;;;;;;;;;19.20;56.00;;;;;;8368346;28;19920;-77
2022/04/21 10:43:48;;;;;;;;;;;19.50;56.30;;;;;;8372156;28;19931;-78
2022/04/21 10:57:16;;;;;;;;;;;20.00;58.10;;;;;;8369037;28;19921;-78
2022/04/21 11:01:22;;;;;;;;;;;20.10;58.90;;;;;;8395452;28;19920;-77
2022/04/21 11:05:44;;;;;;;;;;;20.10;55.10;;;;;;8355253;28;19974;-78
2022/04/21 11:09:50;;;;;;;;;;;20.20;58.50;;;;;;8400086;27;19965;-78
2022/04/21 11:14:11;;;;;;;;;;;20.40;59.20;;;;;;8371475;28;19956;-77
2022/04/21 11:18:15;;;;;;;;;;;20.70;58.50;;;;;;8375003;28;19935;-78
2022/04/21 11:22:35;;;;;;;;;;;21.00;67.30;;;;;;8372368;28;19928;-78
2022/04/21 11:26:37;;;;;;;2.78;1.38;;;20.90;64.70;;;;;;8372972;28;19928;-78
2022/04/21 11:30:39;;;;;;;2.97;1.40;;;20.90;64.30;;;;;;8393444;27;20162;-78
2022/04/21 11:34:42;;;;;;;;;;;21.00;56.90;;;;;;8375373;28;20140;-78
2022/04/21 11:38:47;;;;;;;;;;;21.30;59.40;;;;;;8363587;28;19921;-78
2022/04/21 11:42:49;;;;;;;;;;;21.70;61.70;;;;;;8355274;28;19961;-77
2022/04/21 11:46:51;;;;;;;;;;;22.10;69.40;;;;;;8369512;28;19928;-78
2022/04/21 11:50:53;;;;;;;;;;;22.40;65.00;;;;;;8366213;28;20272;-78
2022/04/21 11:55:01;;;;;;;;;;;22.30;66.10;;;;;;8371963;28;19931;-79
2022/04/21 11:59:10;;;;;;;;;;;22.00;57.30;;;;;;8368023;28;19920;-78
2022/04/21 12:07:32;;;;;;;;;;;22.60;58.10;;;;;;8361349;28;20002;-79
2022/04/21 12:11:35;;;;;;;;;;;22.80;59.40;;;;;;8366731;28;19925;-79
2022/04/21 12:15:38;;;;;;;;;;;23.10;67.80;;;;;;8364743;28;19928;-78
2022/04/21 12:19:39;;;;;;;;;;;23.40;72.50;;;;;;8365312;28;19931;-79
2022/04/21 12:23:41;;;;;;;;;;;23.40;69.90;;;;;;8365610;28;25063;-77
2022/04/21 12:27:44;;;;;;;3.30;1.70;;;22.90;63.50;;;;;;8357370;28;19965;-78
2022/04/21 12:31:54;;;;;;;2.75;1.40;;;22.50;61.30;;;;;;8371439;28;20056;-77
2022/04/21 12:35:56;;;;;;;4.28;1.80;;;22.20;56.40;;;;;;8366558;28;20120;-77
2022/04/21 12:40:00;;;;;;;3.60;1.80;;;22.00;52.90;;;;;;8366830;28;20069;-76
2022/04/21 12:44:23;;;;;;;;;;;21.70;49.40;;;;;;8366066;28;20459;-76
2022/04/21 12:48:30;;;;;;;;;;;21.30;48.30;;;;;;8369815;28;19967;-77
2022/04/21 12:52:37;;;;;;;;;;;21.10;46.10;;;;;;8359776;28;19977;-77
2022/04/21 12:56:40;;;;;;;;;;;21.00;46.20;;;;;;8358627;28;19924;-77
2022/04/21 13:00:42;;;;;;;;;;;21.10;44.80;;;;;;8364668;28;19925;-77
2022/04/21 13:04:45;;;;;;;2.90;1.20;;;21.40;44.60;;;;;;8370528;28;20306;-77
2022/04/21 13:08:46;;;;;;;3.90;1.42;;;21.90;48.00;;;;;;8370498;28;20392;-77
2022/04/21 13:12:48;;;;;;;3.05;1.40;;;22.50;50.10;;;;;;8367890;28;20048;-77
2022/04/21 13:16:50;;;;;;;5.07;1.60;;;22.70;51.10;;;;;;8368854;28;20409;-77
2022/04/21 13:25:12;;;;;;;2.80;1.48;;;22.60;52.50;;;;;;8365149;28;20052;-77
2022/04/21 13:29:14;;;;;;;3.60;1.60;;;22.40;47.50;;;;;;8365859;28;20065;-77
2022/04/21 13:33:22;;;;;;;5.10;1.70;;;22.00;46.40;;;;;;8377827;28;20071;-77
2022/04/21 13:37:24;;;;;;;3.70;1.70;;;21.70;44.30;;;;;;8372084;28;20052;-77
2022/04/21 13:41:26;;;;;;;4.13;1.73;;;21.40;44.60;;;;;;8367765;28;20067;-77
2022/04/21 13:45:28;;;;;;;4.35;1.75;;;21.40;46.00;;;;;;8376846;28;20549;-77
2022/04/21 13:49:34;;;;;;;3.63;1.63;;;21.50;45.30;;;;;;8372073;28;20081;-77
2022/04/21 13:53:36;;;;;;;3.17;1.50;;;22.00;45.70;;;;;;8369525;28;20377;-77
2022/04/21 13:57:38;;;;;;;;;;;22.80;47.90;;;;;;8369381;28;20052;-77
2022/04/21 14:01:41;;;;;;;;;;;23.80;51.00;;;;;;8370269;28;19929;-78
2022/04/21 14:05:43;;;;;;;;;;;24.80;54.10;;;;;;8366467;28;19924;-78
2022/04/21 14:09:44;;;;;;;;;;;25.60;56.80;;;;;;8367577;28;19921;-78
2022/04/21 14:13:50;;;;;;;;;;;26.10;55.60;;;;;;8366704;28;20434;-78
2022/04/21 14:17:52;;;;;;;;;;;26.20;50.20;;;;;;8367932;28;20296;-78
2022/04/21 14:21:54;;;;;;;;;;;25.90;54.60;;;;;;8363553;28;20366;-78
2022/04/21 14:25:55;;;;;;;;;;;25.90;55.40;;;;;;8374843;28;19936;-78
2022/04/21 14:30:01;;;;;;;;;;;25.80;54.20;;;;;;8361986;28;24134;-78
2022/04/21 14:34:03;;;;;;;;;;;25.70;51.90;;;;;;8372333;28;20285;-78
2022/04/21 14:46:48;;;;;;;;;;;25.60;50.10;;;;;;8369467;28;20218;-79
2022/04/21 14:51:09;;;;;;;;;;;25.40;48.70;;;;;;8369075;28;20321;-78
2022/04/21 14:55:11;;;;;;;;;;;25.10;45.30;;;;;;8354709;28;24143;-78
2022/04/21 14:59:13;;;;;;;;;;;24.80;46.90;;;;;;8364968;28;20069;-78
2022/04/21 15:03:17;;;;;;;;;;;25.20;50.20;;;;;;8368221;28;20646;-78
2022/04/21 15:07:19;;;;;;;;;;;26.10;50.60;;;;;;8364890;28;20411;-77
2022/04/21 15:11:21;;;;;;;;;;;26.60;50.40;;;;;;8368831;28;19931;-78
2022/04/21 15:15:22;;;;;;;;;;;26.90;52.90;;;;;;8388865;28;19928;-78
2022/04/21 15:19:24;;;;;;;;;;;27.20;49.00;;;;;;8361356;28;19924;-78
2022/04/21 15:23:27;;;;;;;;;;;26.60;46.50;;;;;;8373636;28;20693;-78
2022/04/21 15:27:32;;;;;;;;;;;26.20;46.70;;;;;;8360200;28;20296;-78
2022/04/21 15:31:34;;;;;;;;;;;26.10;45.90;;;;;;8360350;28;19955;-78
2022/04/21 15:35:38;;;;;;;;;;;26.30;48.70;;;;;;8365213;28;20346;-78
2022/04/21 15:39:40;;;;;;;;;;;26.80;47.60;;;;;;8365342;28;19929;-78
2022/04/21 15:43:41;;;;;;;;;;;26.70;46.90;;;;;;8363376;28;19932;-78
2022/04/21 15:47:43;;;;;;;;;;;26.70;46.40;;;;;;8366983;28;20368;-79
2022/04/21 15:51:46;;;;;;;;;;;26.30;43.90;;;;;;8363635;28;19927;-79
2022/04/21 16:00:08;;;;;;;;;;;25.30;44.80;;;;;;8358602;28;20041;-78
2022/04/21 16:04:10;;;;;;;;;;;25.60;44.40;;;;;;8365307;28;19928;-78
2022/04/21 16:08:11;;;;;;;;;;;25.40;43.80;;;;;;8358250;28;19927;-78
2022/04/21 16:12:13;;;;;;;3.92;1.77;;;25.10;44.10;;;;;;8366669;28;19920;-78
2022/04/21 16:16:20;;;;;;;4.82;2.00;;;24.30;43.30;;;;;;8363709;28;20405;-78
2022/04/21 16:20:22;;;;;;;4.55;2.08;;;23.30;43.30;;;;;;8367871;28;20083;-77
2022/04/21 16:24:24;;;;;;;4.32;1.80;;;22.80;43.80;;;;;;8360987;28;20060;-78
2022/04/21 16:28:26;;;;;;;4.35;1.75;;;22.70;44.80;;;;;;8371426;28;20586;-77
2022/04/21 16:32:28;;;;;;;3.88;1.88;;;22.40;44.20;;;;;;8359272;28;20080;-78
2022/04/21 16:36:29;;;;;;;;;;;22.00;45.30;;;;;;8368419;28;20504;-78
2022/04/21 16:40:31;;;;;;;;;;;21.50;44.60;;;;;;8361325;28;19924;-77
2022/04/21 16:44:33;;;;;;;;;;;21.10;46.20;;;;;;8366301;28;19968;-77
2022/04/21 16:48:34;;;;;;;;;;;20.90;46.60;;;;;;8368266;28;19928;-77
2022/04/21 16:52:37;;;;;;;5.90;2.35;;;20.70;47.20;;;;;;8367983;28;19929;-77
2022/04/21 16:56:38;;;;;;;;;;;20.60;46.20;;;;;;8363602;28;20545;-77
2022/04/21 17:05:01;;;;;;;3.70;1.88;;;20.40;47.00;;;;;;8370797;28;20082;-77
2022/04/21 17:09:04;;;;;;;5.75;2.25;;;20.30;46.70;;;;;;8396115;27;20043;-77
2022/04/21 17:13:08;;;;;;;5.38;2.03;;;20.20;47.10;;;;;;8399189;28;20530;-78
2022/04/21 17:17:16;;;;;;;5.13;2.42;;;20.20;48.10;;;;;;8367112;28;20062;-77
2022/04/21 17:21:18;;;;;;;5.60;2.40;;;20.00;48.40;;;;;;8365947;28;20385;-76
2022/04/21 17:25:20;;;;;;;5.95;2.42;;;19.90;48.00;;;;;;8403699;27;20037;-78
2022/04/21 17:29:21;;;;;;;5.20;2.10;;;19.70;48.30;;;;;;8375332;28;20481;-78
2022/04/21 17:33:23;;;;;;;5.18;2.47;;;19.60;48.20;;;;;;8318945;28;20140;-77
2022/04/21 17:37:25;;;;;;;4.68;2.35;;;19.40;49.00;;;;;;8332884;28;20040;-78
2022/04/21 17:41:27;;;;;;;5.03;2.33;;;19.30;48.40;;;;;;8357436;28;20519;-78
2022/04/21 17:45:29;;;;;;;3.92;2.10;;;19.30;48.50;;;;;;8411396;27;20047;-78
2022/04/21 17:49:31;;;;;;;4.50;2.00;;;19.20;47.90;;;;;;8377816;28;20053;-79
2022/04/21 17:53:33;;;;;;;3.90;2.30;;;19.10;48.00;;;;;;8380520;28;20044;-78
2022/04/21 17:57:34;;;;;;;4.80;2.00;;;19.00;47.60;;;;;;8379558;28;20051;-78
2022/04/21 18:01:36;;;;;;;4.30;1.70;;;18.90;47.20;;;;;;8377571;28;20151;-78
2022/04/21 18:05:38;;;;;;;3.97;2.05;;;18.80;47.00;;;;;;8378907;28;20167;-78
2022/04/21 18:09:40;;;;;;;3.85;2.00;;;18.70;48.20;;;;;;8374636;28;20044;-78
2022/04/21 18:13:45;;;;;;;4.30;1.90;;;18.60;48.10;;;;;;8375210;28;20048;-78
2022/04/21 18:17:48;;;;;;;5.95;1.98;;;18.50;48.60;;;;;;8364815;28;20595;-77
2022/04/21 18:21:50;;;;;;;6.30;2.13;;;18.40;48.00;;;;;;8406327;28;20056;-77
2022/04/21 18:25:51;;;;;;;3.80;1.83;;;18.30;48.00;;;;;;8370636;28;20051;-77
2022/04/21 18:29:53;;;;;;;4.07;2.00;;;18.20;48.20;;;;;;8373913;28;20059;-78
2022/04/21 18:33:55;;;;;;;3.40;1.83;;;18.20;50.10;;;;;;8381763;28;20497;-77
2022/04/21 18:37:57;;;;;;;3.80;1.80;;;18.10;48.70;;;;;;8371897;28;20083;-77
2022/04/21 18:41:59;;;;;;;3.65;2.00;;;18.00;49.60;;;;;;8377536;28;20044;-77
2022/04/21 18:46:02;;;;;;;4.25;2.03;;;18.00;49.80;;;;;;8373456;28;20378;-78
2022/04/21 18:50:04;;;;;;;6.57;2.28;;;17.80;51.50;;;;;;8368842;28;20128;-77
2022/04/21 18:54:07;;;;;;;3.95;1.90;;;17.70;51.40;;;;;;8379041;28;20492;-77
2022/04/21 18:58:24;;;;;;;3.83;1.90;;;17.70;50.30;;;;;;8373491;28;20045;-77
2022/04/21 19:02:26;;;;;;;3.80;1.70;;;17.60;50.10;;;;;;8358521;28;20044;-77
2022/04/21 19:06:27;;;;;;;4.82;1.77;;;17.70;49.70;;;;;;8381984;28;20568;-77
2022/04/21 19:10:30;;;;;;;4.22;1.92;;;17.60;50.70;;;;;;8371846;28;20800;-77
2022/04/21 19:14:32;;;;;;;4.75;1.95;;;17.60;49.70;;;;;;8365219;28;20547;-77
2022/04/21 19:18:34;;;;;;;3.30;1.60;;;17.70;48.50;;;;;;8364455;28;20072;-77
2022/04/21 19:22:36;;;;;;;3.53;1.70;;;17.70;48.30;;;;;;8359244;28;20053;-77
2022/04/21 19:26:40;;;;;;;3.35;1.42;;;17.70;47.80;;;;;;8359973;28;20389;-77
2022/04/21 19:30:42;;;;;;;3.75;1.60;;;17.80;47.50;;;;;;8349428;28;20045;-77
2022/04/21 19:34:44;;;;;;;3.53;1.75;;;17.80;47.70;;;;;;8367220;28;20649;-77
2022/04/21 19:38:46;;;;;;;4.10;1.58;;;17.90;47.80;;;;;;8356513;28;20045;-77
2022/04/21 19:42:48;;;;;;;3.38;1.63;;;17.80;47.30;;;;;;8358337;28;20072;-77
2022/04/21 19:46:50;;;;;;;3.50;1.60;;;17.80;47.50;;;;;;8383143;28;20080;-77
2022/04/21 19:50:52;;;;;;;2.95;1.33;;;17.80;47.60;;;;;;8366363;28;20048;-78
2022/04/21 19:54:53;;;;;;;5.53;1.60;;;17.70;46.60;;;;;;8368728;28;20055;-77
2022/04/21 19:58:56;;;;;;;4.28;1.90;;;17.70;46.40;;;;;;8361653;28;20485;-78
2022/04/21 20:02:57;;;;;;;2.97;1.52;;;17.70;46.20;;;;;;8367188;28;20045;-77
2022/04/21 20:11:25;;;;;;;3.83;1.75;;;17.70;46.40;;;;;;8364825;28;20158;-78
2022/04/21 20:15:26;;;;;;;3.60;1.55;;;17.60;46.20;;;;;;8368230;28;20049;-77
2022/04/21 20:23:49;;;;;;;4.28;1.80;;;17.50;46.30;;;;;;8362936;28;20071;-78
2022/04/21 20:27:50;;;;;;;4.00;1.85;;;17.50;47.00;;;;;;8390204;28;20048;-77
2022/04/21 20:31:54;;;;;;;4.80;1.90;;;17.50;46.30;;;;;;8367601;28;20056;-77
2022/04/21 20:35:55;;;;;;;3.58;1.67;;;17.40;47.80;;;;;;8366732;28;20056;-78
2022/04/21 20:39:57;;;;;;;4.82;1.95;;;17.40;48.00;;;;;;8358022;28;20056;-77
2022/04/21 20:43:59;;;;;;;3.60;1.90;;;17.40;48.10;;;;;;8370300;28;20076;-78
2022/04/21 20:48:01;;;;;;;3.75;1.88;;;17.40;47.90;;;;;;8358893;28;20496;-78
2022/04/21 20:52:03;;;;;;;4.30;1.88;;;17.40;47.90;;;;;;8360101;28;20445;-78
2022/04/21 20:56:05;;;;;;;4.45;1.60;;;17.30;48.10;;;;;;8363907;28;20051;-77
2022/04/21 21:00:12;;;;;;;3.20;1.80;;;17.20;48.90;;;;;;8357956;28;20055;-78
2022/04/21 21:04:14;;;;;;;4.82;2.10;;;17.10;50.80;;;;;;8378095;28;20053;-77
2022/04/21 21:08:16;;;;;;;5.63;2.30;;;16.90;52.50;;;;;;8411541;28;20045;-77
2022/04/21 21:12:19;;;;;;;5.05;1.95;;;16.70;52.40;;;;;;8387014;28;20068;-78
2022/04/21 21:16:20;;;;;;;;;;;16.70;51.70;;;;;;8393055;28;20055;-77
2022/04/21 21:20:22;;;;;;;;;;;16.60;52.60;;;;;;8379995;28;19920;-77
2022/04/21 21:24:25;;;;;;;;;;;16.60;51.90;;;;;;8377735;28;20319;-77
2022/04/21 21:28:26;;;;;;;;;;;16.60;52.00;;;;;;8394544;28;19927;-77
2022/04/21 21:32:28;;;;;;;;;;;16.50;53.30;;;;;;8401610;28;19921;-77
2022/04/21 21:36:31;;;;;;;;;;;16.50;53.10;;;;;;8407573;28;19921;-78
2022/04/21 21:40:32;;;;;;;;;;;16.40;53.00;;;;;;8403325;28;19930;-77
2022/04/21 21:44:34;;;;;;;;;;;16.40;55.00;;;;;;8390672;28;19931;-77
2022/04/21 21:53:02;;;;;;;;;;;16.20;56.20;;;;;;8387372;28;19928;-77
2022/04/21 21:57:04;;;;;;;;;;;16.20;55.30;;;;;;8398524;28;19921;-77
2022/04/21 22:01:05;;;;;;;;;;;16.10;56.30;;;;;;8388567;28;20403;-77
2022/04/21 22:05:07;;;;;;;;;;;16.10;57.40;;;;;;8389181;28;19920;-78
2022/04/21 22:09:09;;;;;;;;;;;16.00;56.70;;;;;;8386152;28;19931;-77
2022/04/21 22:13:11;;;;;;;;;;;15.90;58.50;;;;;;8389380;28;20446;-77
2022/04/21 22:17:13;;;;;;;;;;;15.90;59.90;;;;;;8383842;28;19921;-77
2022/04/21 22:21:14;;;;;;;;;;;15.80;59.30;;;;;;8402057;28;19924;-77
2022/04/21 22:25:16;;;;;;;;;;;15.70;59.70;;;;;;8391869;28;19928;-77
2022/04/21 22:29:18;;;;;;;;;;;15.60;58.20;;;;;;8403008;28;19927;-77
2022/04/21 22:33:42;;;;;;;;;;;15.70;57.50;;;;;;8391743;28;20344;-77
2022/04/21 22:37:44;;;;;;;;;;;15.60;57.90;;;;;;8392325;28;19935;-77
2022/04/21 22:41:45;;;;;;;;;;;15.60;58.90;;;;;;8400358;28;19928;-77
2022/04/21 22:45:48;;;;;;;;;;;15.70;59.60;;;;;;8406423;28;19928;-76
2022/04/21 22:49:50;;;;;;;;;;;15.70;59.20;;;;;;8397782;28;19928;-77
2022/04/21 22:53:51;;;;;;;;;;;15.60;59.00;;;;;;8402682;28;20281;-77
2022/04/21 22:57:53;;;;;;;;;;;15.50;60.60;;;;;;8381455;28;20659;-77
2022/04/21 23:01:56;;;;;;;;;;;15.50;59.10;;;;;;8395271;28;20403;-77
2022/04/21 23:05:57;;;;;;;;;;;15.40;59.70;;;;;;8397448;28;19939;-77
2022/04/21 23:14:20;;;;;;;;;;;15.20;58.70;;;;;;8398438;28;19940;-77
2022/04/21 23:18:21;;;;;;;;;;;15.10;59.80;;;;;;8396064;28;19920;-77
2022/04/21 23:22:23;;;;;;;;;;;15.10;60.80;;;;;;8399129;28;19920;-77
2022/04/21 23:26:25;;;;;;;;;;;14.90;62.30;;;;;;8390063;28;19924;-77
2022/04/21 23:30:27;;;;;;;;;;;14.70;60.80;;;;;;8388443;28;20300;-77
2022/04/21 23:34:29;;;;;;;;;;;14.70;60.40;;;;;;8400373;28;19924;-77
2022/04/21 23:38:30;;;;;;;;;;;14.60;61.50;;;;;;8395705;28;20263;-77
2022/04/21 23:42:32;;;;;;;;;;;14.50;60.00;;;;;;8397361;28;19943;-77
2022/04/21 23:46:34;;;;;;;;;;;14.40;59.60;;;;;;8392160;28;19928;-77
2022/04/21 23:50:36;;;;;;;;;;;14.30;60.70;;;;;;8389922;28;20042;-77
2022/04/21 23:54:37;;;;;;;;;;;14.20;58.60;;;;;;8385479;28;20364;-77
2022/04/21 23:58:40;;;;;;;;;;;14.10;59.70;;;;;;8398291;28;20358;-77
